ftp/archive/2015/0514/CRREL.NZPG.2015.05.14.2010.dat

Download

"TOA5","C150","CR1000","43625","CR1000.Std.22","CPU:247411_r6_eppley2.CR1","44759","eppley_data"
"TIMESTAMP","RECORD","PIR_net","Case_Temp_K","PSP_in_Avg","PSP_in_Min","PSP_in_Max","PIR_in_Avg","PIR_in_Min","PIR_in_Max","wd_2minavg","ws_2minavg","AirTC","RH","BP_mbar"
"TS","RN","","","","","","","","","","","Deg C","Percent","Millibar"
"","","Smp","Smp","Avg","Min","Max","Avg","Min","Max","Smp","Smp","Smp","Smp","Smp"
"2015-05-14 20:10:00",71314,"NAN","NAN","NAN","NAN","NAN","NAN","NAN","NAN",128.7,2.188,-39.88,60.38,986
"2015-05-14 20:20:00",71315,"NAN","NAN","NAN","NAN","NAN","NAN","NAN","NAN",136.3,1.265,-39.88,60.56,986
"2015-05-14 20:30:00",71316,"NAN","NAN","NAN","NAN","NAN","NAN","NAN","NAN",126.5,1.954,-39.88,58.81,986
"2015-05-14 20:40:00",71317,"NAN","NAN","NAN","NAN","NAN","NAN","NAN","NAN",114,1.978,-39.88,61.14,986
"2015-05-14 20:50:00",71318,"NAN","NAN","NAN","NAN","NAN","NAN","NAN","NAN",105.5,1.976,-39.88,60.11,986
"2015-05-14 21:00:00",71319,"NAN","NAN","NAN","NAN","NAN","NAN","NAN","NAN",97.4,2.46,-39.81,62.58,986
"2015-05-14 21:10:00",71320,"NAN","NAN","NAN","NAN","NAN","NAN","NAN","NAN",95,2.291,-39.26,63.92,986
"2015-05-14 21:20:00",71321,"NAN","NAN","NAN","NAN","NAN","NAN","NAN","NAN",80.3,2.617,-38.58,63.75,986
"2015-05-14 21:30:00",71322,"NAN","NAN","NAN","NAN","NAN","NAN","NAN","NAN",73.52,2.559,-38.51,64.09,986
"2015-05-14 21:40:00",71323,"NAN","NAN","NAN","NAN","NAN","NAN","NAN","NAN",100.5,2.389,-39.13,62.23,986
"2015-05-14 21:50:00",71324,"NAN","NAN","NAN","NAN","NAN","NAN","NAN","NAN",112.8,2.739,-38.23,64.65,986
"2015-05-14 22:00:00",71325,"NAN","NAN","NAN","NAN","NAN","NAN","NAN","NAN",100.5,3.318,-38.2,64.38,986
"2015-05-14 22:10:00",71326,"NAN","NAN","NAN","NAN","NAN","NAN","NAN","NAN",99.5,3.125,-37.79,64.75,986
"2015-05-14 22:20:00",71327,"NAN","NAN","NAN","NAN","NAN","NAN","NAN","NAN",113.4,2.752,-37.69,65.16,986
"2015-05-14 22:30:00",71328,"NAN","NAN","NAN","NAN","NAN","NAN","NAN","NAN",100,2.826,-37,65.97,986
"2015-05-14 22:40:00",71329,"NAN","NAN","NAN","NAN","NAN","NAN","NAN","NAN",103.8,2.684,-36.38,66.52,986
"2015-05-14 22:50:00",71330,"NAN","NAN","NAN","NAN","NAN","NAN","NAN","NAN",104.2,3.562,-35.15,68.43,986
"2015-05-14 23:00:00",71331,"NAN","NAN","NAN","NAN","NAN","NAN","NAN","NAN",97.5,5.478,-34.94,67.82,986
"2015-05-14 23:10:00",71332,"NAN","NAN","NAN","NAN","NAN","NAN","NAN","NAN",90.9,5.982,-35.12,67.67,986
"2015-05-14 23:20:00",71333,"NAN","NAN","NAN","NAN","NAN","NAN","NAN","NAN",86.7,5.686,-35.39,66.54,986
"2015-05-14 23:30:00",71334,"NAN","NAN","NAN","NAN","NAN","NAN","NAN","NAN",88.2,5.946,-35.22,67.67,985
"2015-05-14 23:40:00",71335,"NAN","NAN","NAN","NAN","NAN","NAN","NAN","NAN",83.8,5.914,-34.77,68.35,985
"2015-05-14 23:50:00",71336,"NAN","NAN","NAN","NAN","NAN","NAN","NAN","NAN",86.6,6.212,-34.09,69.06,985
"2015-05-15 00:00:00",71337,"NAN","NAN","NAN","NAN","NAN","NAN","NAN","NAN",87.7,6.624,-33.85,68.89,985
"2015-05-15 00:10:00",71338,"NAN","NAN","NAN","NAN","NAN","NAN","NAN","NAN",88.6,6.721,-33.92,68.44,985
"2015-05-15 00:20:00",71339,"NAN","NAN","NAN","NAN","NAN","NAN","NAN","NAN",93.4,6.09,-34.5,68.02,985
"2015-05-15 00:30:00",71340,"NAN","NAN","NAN","NAN","NAN","NAN","NAN","NAN",87.1,5.998,-34.67,67.78,985
"2015-05-15 00:40:00",71341,"NAN","NAN","NAN","NAN","NAN","NAN","NAN","NAN",88.7,6.052,-34.91,67.51,985
"2015-05-15 00:50:00",71342,"NAN","NAN","NAN","NAN","NAN","NAN","NAN","NAN",85.2,6.154,-34.16,69.12,985
"2015-05-15 01:00:00",71343,"NAN","NAN","NAN","NAN","NAN","NAN","NAN","NAN",85,6.528,-34.02,68.12,984
"2015-05-15 01:10:00",71344,"NAN","NAN","NAN","NAN","NAN","NAN","NAN","NAN",86.3,6.503,-33.95,68.6,984
"2015-05-15 01:20:00",71345,"NAN","NAN","NAN","NAN","NAN","NAN","NAN","NAN",84.7,6.292,-33.99,68.05,984
"2015-05-15 01:30:00",71346,"NAN","NAN","NAN","NAN","NAN","NAN","NAN","NAN",82.8,4.867,-33.71,68.84,984
"2015-05-15 01:40:00",71347,"NAN","NAN","NAN","NAN","NAN","NAN","NAN","NAN",87.8,5.787,-33.17,70.04,984
"2015-05-15 01:50:00",71348,"NAN","NAN","NAN","NAN","NAN","NAN","NAN","NAN",87.3,6.876,-33.47,68.6,984
"2015-05-15 02:00:00",71349,"NAN","NAN","NAN","NAN","NAN","NAN","NAN","NAN",87.2,5.495,-33.23,70.21,984
"2015-05-15 02:10:00",71350,"NAN","NAN","NAN","NAN","NAN","NAN","NAN","NAN",86.4,6.355,-32.76,70.27,984
"2015-05-15 02:20:00",71351,"NAN","NAN","NAN","NAN","NAN","NAN","NAN","NAN",89.9,6.214,-32.58,70.44,984
"2015-05-15 02:30:00",71352,"NAN","NAN","NAN","NAN","NAN","NAN","NAN","NAN",89.3,6.585,-32.28,70.44,984
"2015-05-15 02:40:00",71353,"NAN","NAN","NAN","NAN","NAN","NAN","NAN","NAN",82.8,6.742,-31.83,70.81,984
"2015-05-15 02:50:00",71354,"NAN","NAN","NAN","NAN","NAN","NAN","NAN","NAN",80.7,6.285,-31.59,71.32,984
"2015-05-15 03:00:00",71355,"NAN","NAN","NAN","NAN","NAN","NAN","NAN","NAN",83.2,6.159,-31.39,71.76,983
"2015-05-15 03:10:00",71356,"NAN","NAN","NAN","NAN","NAN","NAN","NAN","NAN",86.1,6.256,-31.22,71.28,983
"2015-05-15 03:20:00",71357,"NAN","NAN","NAN","NAN","NAN","NAN","NAN","NAN",86.2,5.344,-31.42,70.97,983
"2015-05-15 03:30:00",71358,"NAN","NAN","NAN","NAN","NAN","NAN","NAN","NAN",91.5,5.25,-31.29,71.65,983
"2015-05-15 03:40:00",71359,"NAN","NAN","NAN","NAN","NAN","NAN","NAN","NAN",82.9,5.839,-31.15,71.51,983
"2015-05-15 03:50:00",71360,"NAN","NAN","NAN","NAN","NAN","NAN","NAN","NAN",86,5.753,-31.15,71.61,983
"2015-05-15 04:00:00",71361,"NAN","NAN","NAN","NAN","NAN","NAN","NAN","NAN",75.44,4.679,-30.91,72.22,983
"2015-05-15 04:10:00",71362,"NAN","NAN","NAN","NAN","NAN","NAN","NAN","NAN",88.8,5.782,-30.71,72.01,983
"2015-05-15 04:20:00",71363,"NAN","NAN","NAN","NAN","NAN","NAN","NAN","NAN",91.2,5.414,-30.88,71.84,983
"2015-05-15 04:30:00",71364,"NAN","NAN","NAN","NAN","NAN","NAN","NAN","NAN",86.4,5.273,-30.91,71.84,983
"2015-05-15 04:40:00",71365,"NAN","NAN","NAN","NAN","NAN","NAN","NAN","NAN",92.1,4.806,-30.91,72.08,983
"2015-05-15 04:50:00",71366,"NAN","NAN","NAN","NAN","NAN","NAN","NAN","NAN",84.8,5.193,-30.88,71.94,983
"2015-05-15 05:00:00",71367,"NAN","NAN","NAN","NAN","NAN","NAN","NAN","NAN",92.5,5.932,-31.01,71.64,982
"2015-05-15 05:10:00",71368,"NAN","NAN","NAN","NAN","NAN","NAN","NAN","NAN",92.8,6.175,-31.15,71.4,982
"2015-05-15 05:20:00",71369,"NAN","NAN","NAN","NAN","NAN","NAN","NAN","NAN",90.4,6.058,-31.32,71.46,982
"2015-05-15 05:30:00",71370,"NAN","NAN","NAN","NAN","NAN","NAN","NAN","NAN",87.1,6.238,-31.63,70.81,982
"2015-05-15 05:40:00",71371,"NAN","NAN","NAN","NAN","NAN","NAN","NAN","NAN",89.4,5.965,-32.11,70.4,982
"2015-05-15 05:50:00",71372,"NAN","NAN","NAN","NAN","NAN","NAN","NAN","NAN",91,5.695,-32.18,70.78,982
"2015-05-15 06:00:00",71373,"NAN","NAN","NAN","NAN","NAN","NAN","NAN","NAN",95.9,5.222,-32.42,70.61,982
"2015-05-15 06:10:00",71374,"NAN","NAN","NAN","NAN","NAN","NAN","NAN","NAN",83.1,4.892,-32.31,70.61,982
"2015-05-15 06:20:00",71375,"NAN","NAN","NAN","NAN","NAN","NAN","NAN","NAN",88.5,5.536,-32.01,70.85,982
"2015-05-15 06:30:00",71376,"NAN","NAN","NAN","NAN","NAN","NAN","NAN","NAN",90,5.734,-32.18,70.92,982
"2015-05-15 06:40:00",71377,"NAN","NAN","NAN","NAN","NAN","NAN","NAN","NAN",88.4,5.529,-31.73,71.47,982
"2015-05-15 06:50:00",71378,"NAN","NAN","NAN","NAN","NAN","NAN","NAN","NAN",87.1,5.362,-31.63,71.33,982
"2015-05-15 07:00:00",71379,"NAN","NAN","NAN","NAN","NAN","NAN","NAN","NAN",91,5.803,-31.8,71.26,982
"2015-05-15 07:10:00",71380,"NAN","NAN","NAN","NAN","NAN","NAN","NAN","NAN",87.8,5.849,-31.94,70.75,982
"2015-05-15 07:20:00",71381,"NAN","NAN","NAN","NAN","NAN","NAN","NAN","NAN",90.4,5.764,-32.35,70.3,982
"2015-05-15 07:30:00",71382,"NAN","NAN","NAN","NAN","NAN","NAN","NAN","NAN",96,5.566,-32.9,69.72,982
"2015-05-15 07:40:00",71383,"NAN","NAN","NAN","NAN","NAN","NAN","NAN","NAN",96.1,5.75,-33.14,69.59,982
"2015-05-15 07:50:00",71384,"NAN","NAN","NAN","NAN","NAN","NAN","NAN","NAN",96.9,5.576,-33.31,69.49,982
"2015-05-15 08:00:00",71385,"NAN","NAN","NAN","NAN","NAN","NAN","NAN","NAN",101.5,5.276,-33.65,68.98,982
"2015-05-15 08:10:00",71386,"NAN","NAN","NAN","NAN","NAN","NAN","NAN","NAN",96.1,5.165,-34.02,68.77,982
"2015-05-15 08:20:00",71387,"NAN","NAN","NAN","NAN","NAN","NAN","NAN","NAN",100.9,4.999,-34.2,68.61,982